Terminal Aerodrome Forecast
Issued by NWS Tulsa, OK

Home | Current Version | Previous Version | Text Only | Print | Product List | Glossary On
Versions: 1 2 3 4 5 6 7 8 9 10 11 12 13 14 15 16 17 18 19
000
FTUS44 KTSA 231000 AAB
TAFTUL
TAF AMD
KTUL 231012Z 2310/2406 11007KT P6SM VCSH BKN008 OVC015
     FM231500 14011KT P6SM OVC015
     FM232000 14012KT 5SM -RA BR BKN015
      TEMPO 2320/2324 2SM -TSRA BR BKN015CB
     FM240000 15012KT 3SM -TSRA BR BKN015CB=

USA.gov is the U.S. government's official web portal to all federal, state and local government web resources and services.